Time;durP1;ratioP1;P1;durP2;ratioP2;P2;SDS_P1;SDS_P2;PMS_P1;PMS_P2;Temp;Humidity;BMP_temperature;BMP_pressure;BME280_temperature;BME280_humidity;BME280_pressure;Samples;Min_cycle;Max_cycle;Signal;HPM_P1;HPM_P2
2023/08/04 00:01:38;;;;;;;2.15;1.40;;;19.90;68.70;;;;;;4862724;29;20048;-78
2023/08/04 00:04:04;;;;;;;1.77;1.50;;;20.00;68.90;;;;;;4864192;29;20033;-79
2023/08/04 00:06:30;;;;;;;2.15;1.42;;;19.90;68.80;;;;;;4878045;29;20044;-78
2023/08/04 00:08:55;;;;;;;2.17;1.45;;;19.90;68.80;;;;;;4894302;29;20037;-79
2023/08/04 00:11:21;;;;;;;2.30;1.45;;;19.90;68.80;;;;;;4877474;29;20060;-78
2023/08/04 00:13:47;;;;;;;2.33;1.45;;;19.80;68.80;;;;;;4894170;29;20486;-78
2023/08/04 00:16:13;;;;;;;2.67;1.50;;;19.80;68.80;;;;;;4908671;29;20041;-78
2023/08/04 00:18:38;;;;;;;1.77;1.30;;;19.80;68.90;;;;;;4864505;29;20569;-78
2023/08/04 00:21:04;;;;;;;2.95;1.60;;;19.80;68.90;;;;;;4894533;29;20128;-78
2023/08/04 00:23:30;;;;;;;2.45;1.52;;;19.80;68.90;;;;;;4877366;29;20052;-78
2023/08/04 00:25:56;;;;;;;2.60;1.48;;;19.80;69.00;;;;;;4893773;29;20057;-78
2023/08/04 00:28:22;;;;;;;1.83;1.45;;;19.80;69.00;;;;;;4875490;29;20135;-78
2023/08/04 00:30:48;;;;;;;2.17;1.35;;;19.80;69.00;;;;;;4893678;29;20043;-79
2023/08/04 00:33:14;;;;;;;2.03;1.38;;;19.80;69.10;;;;;;4892943;29;20033;-78
2023/08/04 00:35:40;;;;;;;2.10;1.30;;;19.70;69.00;;;;;;4893496;29;20434;-78
2023/08/04 00:38:06;;;;;;;1.52;1.35;;;19.70;69.10;;;;;;4894191;29;20124;-78
2023/08/04 00:40:32;;;;;;;2.47;1.50;;;19.70;69.10;;;;;;4893584;29;20574;-78
2023/08/04 00:42:58;;;;;;;2.00;1.35;;;19.70;69.10;;;;;;4905269;29;20123;-78
2023/08/04 00:45:27;;;;;;;1.67;1.30;;;19.60;69.10;;;;;;4877965;29;20056;-78
2023/08/04 00:47:53;;;;;;;2.50;1.63;;;19.70;69.10;;;;;;4907492;29;20120;-78
2023/08/04 00:50:19;;;;;;;1.55;1.35;;;19.60;69.10;;;;;;4893937;29;20119;-78
2023/08/04 00:52:46;;;;;;;1.92;1.50;;;19.60;69.10;;;;;;4897579;29;20029;-78
2023/08/04 00:55:14;;;;;;;1.80;1.40;;;19.60;69.10;;;;;;4889540;29;20383;-78
2023/08/04 00:57:40;;;;;;;2.63;1.70;;;19.60;69.20;;;;;;4902279;29;20087;-78
2023/08/04 01:00:07;;;;;;;1.63;1.50;;;19.60;69.10;;;;;;4880052;29;20040;-78
2023/08/04 01:02:33;;;;;;;2.88;1.70;;;19.60;69.20;;;;;;4880384;29;20542;-78
2023/08/04 01:05:02;;;;;;;1.48;1.27;;;19.50;69.20;;;;;;4866065;29;20629;-78
2023/08/04 01:07:33;;;;;;;2.97;1.70;;;19.50;69.20;;;;;;4910852;29;20496;-78
2023/08/04 01:10:17;;;;;;;2.05;1.42;;;19.50;69.20;;;;;;4892397;29;20313;-79
2023/08/04 01:13:06;;;;;;;1.77;1.48;;;19.50;69.20;;;;;;4887390;29;20151;-78
2023/08/04 01:15:33;;;;;;;1.67;1.30;;;19.50;69.30;;;;;;4891866;29;20033;-78
2023/08/04 01:17:59;;;;;;;2.33;1.50;;;19.40;69.20;;;;;;4906013;29;20462;-78
2023/08/04 01:20:26;;;;;;;1.50;1.40;;;19.40;69.30;;;;;;4895143;29;20051;-80
2023/08/04 01:22:54;;;;;;;2.72;1.70;;;19.40;69.30;;;;;;4898205;29;20032;-78
2023/08/04 01:25:35;;;;;;;2.15;1.50;;;19.40;69.40;;;;;;4882728;29;20044;-78
2023/08/04 01:28:09;;;;;;;3.08;1.67;;;19.40;69.40;;;;;;4898596;29;20033;-79
2023/08/04 01:30:36;;;;;;;2.15;1.40;;;19.40;69.30;;;;;;4898729;29;20412;-78
2023/08/04 01:33:02;;;;;;;2.50;1.83;;;19.40;69.30;;;;;;4898295;29;20037;-78
2023/08/04 01:35:29;;;;;;;2.33;1.50;;;19.30;69.30;;;;;;4898362;29;20064;-78
2023/08/04 01:37:55;;;;;;;2.63;1.70;;;19.30;69.40;;;;;;4899420;29;20053;-78
2023/08/04 01:40:21;;;;;;;2.63;1.60;;;19.30;69.40;;;;;;4898170;29;20068;-78
2023/08/04 01:42:46;;;;;;;1.67;1.45;;;19.30;69.50;;;;;;4898146;29;20451;-78
2023/08/04 01:45:12;;;;;;;1.50;1.35;;;19.30;69.40;;;;;;4882554;29;20032;-78
2023/08/04 01:47:39;;;;;;;3.22;1.63;;;19.30;69.40;;;;;;4882460;29;20033;-78
2023/08/04 01:50:08;;;;;;;2.88;1.70;;;19.30;69.50;;;;;;4899090;29;20032;-79
2023/08/04 01:52:34;;;;;;;2.65;1.65;;;19.20;69.50;;;;;;4897563;29;20036;-81
2023/08/04 01:55:01;;;;;;;1.73;1.45;;;19.20;69.50;;;;;;4897805;29;20562;-78
2023/08/04 01:57:26;;;;;;;1.88;1.35;;;19.20;69.50;;;;;;4882056;29;20123;-77
2023/08/04 01:59:52;;;;;;;2.42;1.60;;;19.20;69.50;;;;;;4897653;29;20095;-77
2023/08/04 02:02:18;;;;;;;2.25;1.50;;;19.20;69.60;;;;;;4882078;29;20037;-77
2023/08/04 02:04:43;;;;;;;2.47;1.40;;;19.20;69.50;;;;;;4882195;29;20043;-80
2023/08/04 02:07:09;;;;;;;1.95;1.40;;;19.20;69.60;;;;;;4913398;29;20040;-78
2023/08/04 02:09:35;;;;;;;2.08;1.40;;;19.20;69.60;;;;;;4897557;29;20040;-78
2023/08/04 02:12:01;;;;;;;2.63;1.70;;;19.20;69.60;;;;;;4897029;29;20048;-78
2023/08/04 02:14:28;;;;;;;2.83;1.52;;;19.20;69.60;;;;;;4897391;29;20104;-77
2023/08/04 02:16:54;;;;;;;3.10;1.75;;;19.10;69.60;;;;;;4898831;29;20458;-79
2023/08/04 02:19:23;;;;;;;1.88;1.42;;;19.10;69.60;;;;;;4897361;29;20085;-79
2023/08/04 02:21:50;;;;;;;3.10;1.45;;;19.10;69.60;;;;;;4897458;29;20037;-78
2023/08/04 02:24:16;;;;;;;2.17;1.50;;;19.10;69.70;;;;;;4897604;29;20029;-78
2023/08/04 02:26:44;;;;;;;2.42;1.52;;;19.10;69.70;;;;;;4897273;29;20039;-80
2023/08/04 02:29:13;;;;;;;1.75;1.50;;;19.10;69.70;;;;;;4897281;29;20063;-79
2023/08/04 02:31:39;;;;;;;2.15;1.48;;;19.10;69.70;;;;;;4882539;29;20399;-78
2023/08/04 02:34:06;;;;;;;2.05;1.42;;;19.10;69.70;;;;;;4898548;29;20040;-78
2023/08/04 02:36:31;;;;;;;2.30;1.58;;;19.10;69.70;;;;;;4882555;29;20048;-80
2023/08/04 02:38:57;;;;;;;3.35;1.77;;;19.10;69.80;;;;;;4896975;29;20045;-77
2023/08/04 02:41:23;;;;;;;1.85;1.58;;;19.00;69.70;;;;;;4898618;29;20048;-80
2023/08/04 02:43:49;;;;;;;2.05;1.70;;;19.10;69.80;;;;;;4897178;29;20085;-78
2023/08/04 02:46:15;;;;;;;1.40;1.27;;;19.00;69.80;;;;;;4897098;29;20040;-79
2023/08/04 02:48:40;;;;;;;1.88;1.67;;;19.00;69.80;;;;;;4897374;29;20439;-78
2023/08/04 02:51:11;;;;;;;2.33;1.58;;;19.00;69.80;;;;;;4881818;29;20036;-78
2023/08/04 02:53:40;;;;;;;3.88;1.63;;;19.00;69.80;;;;;;4898656;29;20470;-78
2023/08/04 02:56:16;;;;;;;2.28;1.50;;;19.00;69.90;;;;;;4896840;29;20024;-77
2023/08/04 02:58:44;;;;;;;2.40;1.52;;;19.00;69.90;;;;;;4897444;29;20040;-77
2023/08/04 03:01:10;;;;;;;2.85;1.55;;;19.00;69.90;;;;;;4897403;29;20466;-78
2023/08/04 03:03:37;;;;;;;3.67;1.80;;;19.00;69.90;;;;;;4881759;29;20029;-78
2023/08/04 03:06:03;;;;;;;3.03;1.50;;;18.90;69.80;;;;;;4897002;29;20029;-77
2023/08/04 03:08:31;;;;;;;1.95;1.48;;;19.00;69.90;;;;;;4897045;29;20041;-78
2023/08/04 03:10:57;;;;;;;2.97;1.80;;;19.00;69.90;;;;;;4896662;29;20037;-78
2023/08/04 03:13:23;;;;;;;2.08;1.65;;;19.00;69.90;;;;;;4896801;29;20133;-79
2023/08/04 03:16:00;;;;;;;2.30;1.50;;;18.90;69.90;;;;;;4881255;29;20065;-78
2023/08/04 03:18:27;;;;;;;2.28;1.52;;;18.90;70.00;;;;;;4898463;29;20144;-79
2023/08/04 03:20:52;;;;;;;4.13;1.77;;;18.90;69.90;;;;;;4897476;29;20067;-78
2023/08/04 03:23:19;;;;;;;2.08;1.50;;;18.90;69.90;;;;;;4897252;29;20514;-80
2023/08/04 03:25:45;;;;;;;3.55;1.85;;;18.90;69.90;;;;;;4885318;29;20047;-78
2023/08/04 03:28:11;;;;;;;1.98;1.67;;;18.90;70.00;;;;;;4900635;29;20040;-80
2023/08/04 03:30:37;;;;;;;2.30;1.52;;;18.90;70.00;;;;;;4900751;29;20029;-79
2023/08/04 03:33:02;;;;;;;3.65;1.70;;;18.90;70.00;;;;;;4900883;29;20041;-77
2023/08/04 03:35:29;;;;;;;3.28;1.65;;;18.90;70.00;;;;;;4900594;29;20052;-78
2023/08/04 03:37:55;;;;;;;3.83;1.98;;;18.90;70.00;;;;;;4916353;29;20043;-78
2023/08/04 03:40:20;;;;;;;3.22;2.00;;;18.90;70.00;;;;;;4900318;29;20032;-78
2023/08/04 03:42:47;;;;;;;1.98;1.75;;;18.90;70.00;;;;;;4901135;29;20039;-78
2023/08/04 03:45:13;;;;;;;3.53;1.80;;;18.80;70.00;;;;;;4901088;29;20037;-79
2023/08/04 03:47:38;;;;;;;2.85;1.88;;;18.80;70.00;;;;;;4884535;29;20491;-79
2023/08/04 03:50:05;;;;;;;2.83;1.98;;;18.80;70.00;;;;;;4901020;29;20041;-78
2023/08/04 03:52:31;;;;;;;2.45;1.88;;;18.80;70.00;;;;;;4899996;29;20041;-80
2023/08/04 03:54:57;;;;;;;3.63;2.10;;;18.80;70.00;;;;;;4900996;29;20032;-77
2023/08/04 03:57:23;;;;;;;2.88;1.85;;;18.80;70.00;;;;;;4900558;29;20486;-77
2023/08/04 03:59:49;;;;;;;2.83;1.75;;;18.80;70.10;;;;;;4884791;29;20041;-77
2023/08/04 04:02:15;;;;;;;2.65;1.83;;;18.80;70.10;;;;;;4884306;29;20044;-79
2023/08/04 04:04:41;;;;;;;3.45;1.88;;;18.80;70.10;;;;;;4899625;29;20036;-78
2023/08/04 04:07:07;;;;;;;3.08;2.10;;;18.80;70.10;;;;;;4901305;29;20044;-78
2023/08/04 04:09:32;;;;;;;2.47;1.70;;;18.80;70.10;;;;;;4900926;29;20129;-79
2023/08/04 04:11:58;;;;;;;2.95;2.00;;;18.80;70.10;;;;;;4899993;29;20474;-78
2023/08/04 04:14:24;;;;;;;2.65;1.67;;;18.80;70.10;;;;;;4901146;29;20092;-78
2023/08/04 04:16:49;;;;;;;3.03;2.03;;;18.70;70.10;;;;;;4899232;29;20060;-78
2023/08/04 04:19:15;;;;;;;2.28;1.98;;;18.80;70.10;;;;;;4900968;29;20040;-77
2023/08/04 04:21:41;;;;;;;2.45;1.85;;;18.70;70.10;;;;;;4901066;29;20052;-80
2023/08/04 04:24:06;;;;;;;3.03;1.85;;;18.80;70.20;;;;;;4899324;29;20525;-77
2023/08/04 04:26:32;;;;;;;3.17;1.90;;;18.80;70.20;;;;;;4915327;29;20037;-77
2023/08/04 04:28:58;;;;;;;2.70;2.00;;;18.70;70.20;;;;;;4899455;29;20051;-80
2023/08/04 04:31:24;;;;;;;2.65;1.70;;;18.70;70.20;;;;;;4915953;29;20024;-78
2023/08/04 04:33:49;;;;;;;2.95;1.90;;;18.70;70.20;;;;;;4899712;29;20092;-78
2023/08/04 04:36:15;;;;;;;2.25;1.80;;;18.70;70.20;;;;;;4914767;29;20382;-79
2023/08/04 04:38:41;;;;;;;2.47;1.83;;;18.70;70.20;;;;;;4883573;29;20041;-78
2023/08/04 04:41:06;;;;;;;4.18;2.25;;;18.70;70.20;;;;;;4899419;29;20068;-78
2023/08/04 04:43:33;;;;;;;3.38;2.15;;;18.70;70.20;;;;;;4883617;29;20044;-79
2023/08/04 04:45:59;;;;;;;2.75;1.95;;;18.80;70.30;;;;;;4883756;29;20477;-78
2023/08/04 04:48:25;;;;;;;2.90;1.90;;;18.70;70.30;;;;;;4914742;29;20040;-80
2023/08/04 04:50:51;;;;;;;3.47;2.00;;;18.70;70.20;;;;;;4899002;29;20036;-77
2023/08/04 04:53:17;;;;;;;3.03;1.95;;;18.70;70.30;;;;;;4898905;29;20157;-80
2023/08/04 04:55:43;;;;;;;3.45;1.70;;;18.70;70.30;;;;;;4899195;29;20040;-78
2023/08/04 04:58:09;;;;;;;2.35;1.80;;;18.70;70.30;;;;;;4898827;29;20032;-80
2023/08/04 05:00:35;;;;;;;2.97;1.80;;;18.70;70.30;;;;;;4883313;29;20048;-76
2023/08/04 05:03:06;;;;;;;3.25;1.95;;;18.70;70.30;;;;;;4899086;29;20036;-77
2023/08/04 05:05:32;;;;;;;3.35;2.15;;;18.70;70.30;;;;;;4884001;29;20047;-77
2023/08/04 05:07:58;;;;;;;2.30;1.83;;;18.70;70.30;;;;;;4900642;29;20378;-76
2023/08/04 05:10:24;;;;;;;2.72;1.80;;;18.70;70.40;;;;;;4898654;29;20068;-78
2023/08/04 05:12:50;;;;;;;3.15;2.17;;;18.70;71.00;;;;;;4883247;29;20041;-76
2023/08/04 05:15:16;;;;;;;3.10;1.90;;;18.70;70.30;;;;;;4898933;29;20047;-77
2023/08/04 05:17:42;;;;;;;2.78;2.08;;;18.70;70.30;;;;;;4883231;29;20099;-77
2023/08/04 05:20:08;;;;;;;2.60;2.00;;;18.70;70.30;;;;;;4914449;29;20123;-77
2023/08/04 05:22:34;;;;;;;2.85;1.85;;;18.60;70.30;;;;;;4914200;29;20096;-79
2023/08/04 05:24:59;;;;;;;2.30;1.95;;;18.70;70.40;;;;;;4900022;29;20032;-77
2023/08/04 05:27:25;;;;;;;2.90;2.15;;;18.70;70.40;;;;;;4898812;29;20028;-78
2023/08/04 05:29:51;;;;;;;2.88;2.03;;;18.70;70.40;;;;;;4899267;29;20454;-79
2023/08/04 05:32:16;;;;;;;2.97;1.90;;;18.70;70.40;;;;;;4882694;29;20056;-76
2023/08/04 05:34:42;;;;;;;3.88;2.10;;;18.70;70.40;;;;;;4898147;29;20044;-78
2023/08/04 05:37:08;;;;;;;2.72;1.85;;;18.70;70.50;;;;;;4899666;29;20387;-78
2023/08/04 05:39:34;;;;;;;2.88;1.80;;;18.70;70.40;;;;;;4898480;29;20068;-79
2023/08/04 05:41:59;;;;;;;2.35;1.92;;;18.70;70.40;;;;;;4897993;29;20115;-77
2023/08/04 05:44:25;;;;;;;2.72;1.90;;;18.70;70.40;;;;;;4898136;29;20478;-77
2023/08/04 05:46:51;;;;;;;2.30;1.63;;;18.70;70.40;;;;;;4897602;29;20039;-77
2023/08/04 05:49:17;;;;;;;2.47;1.60;;;18.70;70.40;;;;;;4898456;29;20124;-78
2023/08/04 05:51:45;;;;;;;2.08;1.75;;;18.70;70.50;;;;;;4898748;29;20060;-78
2023/08/04 05:54:10;;;;;;;2.53;1.80;;;18.70;70.50;;;;;;4898110;29;20035;-78
2023/08/04 05:56:36;;;;;;;2.30;1.75;;;18.70;70.50;;;;;;4897925;29;20123;-78
2023/08/04 05:59:02;;;;;;;2.17;1.55;;;18.70;70.50;;;;;;4867260;29;20470;-77
2023/08/04 06:01:27;;;;;;;2.10;1.70;;;18.70;70.50;;;;;;4897703;29;20119;-78
2023/08/04 06:03:54;;;;;;;2.47;1.58;;;18.70;70.60;;;;;;4913569;29;20040;-77
2023/08/04 06:06:20;;;;;;;2.70;1.92;;;18.70;70.60;;;;;;4898050;29;20434;-80
2023/08/04 06:08:46;;;;;;;2.83;1.98;;;18.70;70.60;;;;;;4897924;29;20040;-77
2023/08/04 06:11:13;;;;;;;1.80;1.50;;;18.70;70.60;;;;;;4899722;29;20375;-78
2023/08/04 06:13:39;;;;;;;2.13;1.50;;;18.70;70.60;;;;;;4897442;29;20036;-79
2023/08/04 06:16:05;;;;;;;1.77;1.58;;;18.70;70.60;;;;;;4898828;29;20051;-79
2023/08/04 06:18:31;;;;;;;1.75;1.60;;;18.70;70.60;;;;;;4914061;29;20123;-77
2023/08/04 06:20:56;;;;;;;2.42;1.75;;;18.80;70.60;;;;;;4913580;29;20041;-78
2023/08/04 06:23:22;;;;;;;1.98;1.52;;;18.80;70.70;;;;;;4898529;29;20486;-78
2023/08/04 06:25:48;;;;;;;2.50;1.55;;;18.70;70.60;;;;;;4882864;29;20033;-79
2023/08/04 06:28:14;;;;;;;2.22;1.55;;;18.80;70.70;;;;;;4913198;29;20040;-79
2023/08/04 06:30:39;;;;;;;3.28;2.30;;;18.80;70.70;;;;;;4898830;29;20513;-79
2023/08/04 06:33:05;;;;;;;2.15;1.70;;;18.80;70.70;;;;;;4897403;29;20044;-79
2023/08/04 06:35:31;;;;;;;2.85;1.67;;;18.80;70.70;;;;;;4897649;29;20039;-79
2023/08/04 06:37:57;;;;;;;2.95;1.70;;;18.80;70.70;;;;;;4897848;29;20079;-79
2023/08/04 06:40:23;;;;;;;2.38;1.77;;;18.80;71.30;;;;;;4913026;29;20045;-77
2023/08/04 06:42:49;;;;;;;2.40;1.73;;;18.80;70.70;;;;;;4897303;29;20402;-77
2023/08/04 06:45:15;;;;;;;1.70;1.60;;;18.80;70.70;;;;;;4882631;29;20037;-78
2023/08/04 06:47:41;;;;;;;1.80;1.45;;;18.80;70.70;;;;;;4913850;29;20100;-79
2023/08/04 06:50:07;;;;;;;3.65;1.80;;;18.80;70.70;;;;;;4882535;29;20450;-78
2023/08/04 06:52:33;;;;;;;2.63;1.50;;;18.90;70.90;;;;;;4881862;29;20036;-78
2023/08/04 06:54:59;;;;;;;2.03;1.42;;;18.90;70.70;;;;;;4898072;29;20084;-76
2023/08/04 06:57:25;;;;;;;2.13;1.67;;;18.90;70.70;;;;;;4897321;29;20037;-77
2023/08/04 06:59:51;;;;;;;2.67;1.75;;;18.90;70.70;;;;;;4884581;29;20622;-78
2023/08/04 07:02:17;;;;;;;2.17;1.70;;;18.90;70.70;;;;;;4901162;29;20415;-77
2023/08/04 07:04:43;;;;;;;1.90;1.52;;;18.90;70.70;;;;;;4917183;29;20041;-77
2023/08/04 07:07:11;;;;;;;2.55;1.80;;;18.90;70.70;;;;;;4885484;29;20037;-78
2023/08/04 07:09:37;;;;;;;1.90;1.58;;;18.90;70.70;;;;;;4900959;29;20363;-77
2023/08/04 07:12:03;;;;;;;1.60;1.50;;;18.90;70.70;;;;;;4916597;29;20043;-80
2023/08/04 07:14:29;;;;;;;2.40;1.60;;;19.00;70.70;;;;;;4885818;29;20029;-78
2023/08/04 07:16:55;;;;;;;1.88;1.48;;;18.90;70.70;;;;;;4916223;29;20057;-79
2023/08/04 07:19:20;;;;;;;2.13;1.77;;;19.00;70.70;;;;;;4900743;29;20036;-78
2023/08/04 07:21:46;;;;;;;2.70;1.80;;;19.00;70.70;;;;;;4900746;29;20067;-80
2023/08/04 07:24:12;;;;;;;1.95;1.30;;;19.00;70.70;;;;;;4900826;29;20032;-82
2023/08/04 07:26:38;;;;;;;2.45;1.50;;;19.10;70.70;;;;;;4900698;29;20131;-77
2023/08/04 07:29:04;;;;;;;1.90;1.50;;;19.10;70.70;;;;;;4901554;29;20033;-78
2023/08/04 07:31:31;;;;;;;1.80;1.40;;;19.10;70.70;;;;;;4900680;29;20043;-79
2023/08/04 07:33:57;;;;;;;1.65;1.52;;;19.10;70.60;;;;;;4900717;29;20040;-83
2023/08/04 07:36:26;;;;;;;1.67;1.50;;;19.10;70.60;;;;;;4886136;29;20096;-79
2023/08/04 07:38:51;;;;;;;3.00;1.70;;;19.10;70.60;;;;;;4902215;29;20033;-80
2023/08/04 07:41:22;;;;;;;1.83;1.48;;;19.20;70.60;;;;;;4900562;29;20458;-80
2023/08/04 07:43:48;;;;;;;1.60;1.48;;;19.20;70.70;;;;;;4900539;29;20122;-80
2023/08/04 07:46:28;;;;;;;2.22;1.52;;;19.30;70.60;;;;;;4884709;29;20490;-79
2023/08/04 07:48:54;;;;;;;1.77;1.50;;;19.30;70.70;;;;;;4901042;29;20427;-79
2023/08/04 07:51:21;;;;;;;3.20;1.83;;;19.30;70.50;;;;;;4915876;29;20036;-79
2023/08/04 07:53:47;;;;;;;2.28;1.70;;;19.30;70.50;;;;;;4900301;29;20398;-80
2023/08/04 07:56:13;;;;;;;2.55;1.73;;;19.40;70.60;;;;;;4901162;29;20037;-80
2023/08/04 07:58:39;;;;;;;1.67;1.40;;;19.40;70.60;;;;;;4900108;29;20032;-80
2023/08/04 08:01:04;;;;;;;2.17;1.60;;;19.40;70.50;;;;;;4900163;29;20044;-82
2023/08/04 08:03:32;;;;;;;2.20;1.63;;;19.40;70.50;;;;;;4900138;29;20131;-80
2023/08/04 08:05:58;;;;;;;2.45;1.77;;;19.50;70.60;;;;;;4900210;29;20091;-81
2023/08/04 08:08:24;;;;;;;2.05;1.52;;;19.50;70.40;;;;;;4915966;29;20128;-83
2023/08/04 08:10:50;;;;;;;2.13;1.60;;;19.50;70.40;;;;;;4899585;29;20057;-80
2023/08/04 08:13:16;;;;;;;2.17;1.50;;;19.50;70.40;;;;;;4900123;29;20377;-82
2023/08/04 08:15:42;;;;;;;2.28;1.48;;;19.60;70.40;;;;;;4899920;29;20044;-80
2023/08/04 08:18:08;;;;;;;1.90;1.35;;;19.60;70.30;;;;;;4899426;29;20060;-80
2023/08/04 08:20:34;;;;;;;2.10;1.45;;;19.60;70.20;;;;;;4900516;29;20037;-80
2023/08/04 08:22:59;;;;;;;2.78;1.50;;;19.70;70.30;;;;;;4884035;29;20041;-80
2023/08/04 08:25:25;;;;;;;2.00;1.70;;;19.70;70.20;;;;;;4900686;29;20028;-79
2023/08/04 08:27:51;;;;;;;1.88;1.60;;;19.80;70.30;;;;;;4915301;29;20033;-79
2023/08/04 08:30:17;;;;;;;3.08;1.48;;;19.80;70.30;;;;;;4899567;29;20096;-80
2023/08/04 08:32:43;;;;;;;1.83;1.60;;;19.80;70.20;;;;;;4899349;29;20087;-80
2023/08/04 08:35:09;;;;;;;1.63;1.40;;;19.90;70.20;;;;;;4899134;29;20047;-79
2023/08/04 08:37:35;;;;;;;2.17;1.55;;;19.90;70.10;;;;;;4899464;29;20044;-79
2023/08/04 08:40:01;;;;;;;2.40;1.60;;;19.90;70.00;;;;;;4899663;29;20214;-81
2023/08/04 08:42:27;;;;;;;2.13;1.45;;;20.00;70.00;;;;;;4884067;29;20068;-80
2023/08/04 08:44:54;;;;;;;1.50;1.40;;;20.00;70.00;;;;;;4883936;29;20080;-78
2023/08/04 08:47:21;;;;;;;2.22;1.70;;;20.10;69.90;;;;;;4915075;29;20052;-79
2023/08/04 08:49:51;;;;;;;1.50;1.40;;;20.00;69.90;;;;;;4899696;29;20048;-85
2023/08/04 08:52:20;;;;;;;1.75;1.40;;;20.10;69.90;;;;;;4900539;29;20039;-80
2023/08/04 08:54:47;;;;;;;1.58;1.40;;;20.20;69.80;;;;;;4900581;29;20466;-80
2023/08/04 08:57:14;;;;;;;1.48;1.27;;;20.20;69.80;;;;;;4915020;29;20041;-81
2023/08/04 08:59:40;;;;;;;1.80;1.40;;;20.20;69.60;;;;;;4899178;29;20040;-82
2023/08/04 09:02:07;;;;;;;1.88;1.52;;;20.30;69.60;;;;;;4883316;29;20036;-82
2023/08/04 09:04:37;;;;;;;1.90;1.60;;;20.30;69.60;;;;;;4898856;29;20048;-83
2023/08/04 09:07:04;;;;;;;2.35;1.60;;;20.40;69.60;;;;;;4900015;29;20040;-83
2023/08/04 09:09:29;;;;;;;1.40;1.30;;;20.40;69.50;;;;;;4883046;29;20040;-82
2023/08/04 09:11:56;;;;;;;2.08;1.45;;;20.50;69.50;;;;;;4899227;29;20032;-80
2023/08/04 09:14:22;;;;;;;1.85;1.38;;;20.50;69.40;;;;;;4899730;29;20075;-80
2023/08/04 09:16:48;;;;;;;1.30;1.20;;;20.50;69.30;;;;;;4883271;29;20116;-80
2023/08/04 09:19:14;;;;;;;1.30;1.20;;;20.60;69.30;;;;;;4899559;29;20048;-81
2023/08/04 09:21:40;;;;;;;1.95;1.52;;;20.70;69.30;;;;;;4883413;29;20059;-81
2023/08/04 09:24:10;;;;;;;2.05;1.38;;;20.70;69.20;;;;;;4899554;29;20538;-80
2023/08/04 09:26:44;;;;;;;1.65;1.52;;;20.70;69.10;;;;;;4898470;29;20084;-82
2023/08/04 09:29:12;;;;;;;1.35;1.25;;;20.80;69.10;;;;;;4898915;29;20075;-79
2023/08/04 09:31:39;;;;;;;2.63;1.40;;;20.80;69.00;;;;;;4898947;29;20496;-84
2023/08/04 09:34:07;;;;;;;1.92;1.30;;;20.90;69.00;;;;;;4899322;29;20036;-76
2023/08/04 09:36:47;;;;;;;1.77;1.30;;;20.90;69.00;;;;;;4899423;29;20056;-80
2023/08/04 09:39:13;;;;;;;1.40;1.30;;;20.90;69.00;;;;;;4898624;29;20064;-79
2023/08/04 09:41:44;;;;;;;1.20;1.10;;;21.00;68.90;;;;;;4899037;29;20429;-79
2023/08/04 09:44:11;;;;;;;1.52;1.40;;;21.00;68.90;;;;;;4900051;29;20036;-80
2023/08/04 09:46:40;;;;;;;1.92;1.02;;;21.00;68.80;;;;;;4898349;29;20039;-80
2023/08/04 09:49:07;;;;;;;1.80;1.17;;;21.10;68.90;;;;;;4898163;29;20040;-78
2023/08/04 09:51:40;;;;;;;1.63;1.10;;;21.10;68.90;;;;;;4882961;29;20165;-78
2023/08/04 09:54:06;;;;;;;1.40;1.20;;;21.20;68.90;;;;;;4899036;29;20036;-81
2023/08/04 09:56:33;;;;;;;1.80;1.20;;;21.20;68.70;;;;;;4898771;29;20454;-81
2023/08/04 09:58:59;;;;;;;1.40;1.30;;;21.20;68.60;;;;;;4897785;29;20056;-78
2023/08/04 10:01:25;;;;;;;1.17;1.02;;;21.30;68.60;;;;;;4897777;29;20037;-78
2023/08/04 10:03:53;;;;;;;1.38;1.27;;;21.30;68.50;;;;;;4913766;29;20033;-79
2023/08/04 10:06:20;;;;;;;1.13;1.10;;;21.40;68.50;;;;;;4899067;29;20168;-79
2023/08/04 10:08:48;;;;;;;1.20;1.10;;;21.50;68.50;;;;;;4913300;29;20061;-81
2023/08/04 10:11:14;;;;;;;0.98;0.98;;;21.50;68.40;;;;;;4897704;29;20446;-82
2023/08/04 10:13:43;;;;;;;1.20;1.10;;;21.50;68.30;;;;;;4882675;29;20047;-82
2023/08/04 10:16:12;;;;;;;1.20;1.10;;;21.60;68.30;;;;;;4897725;29;20036;-80
2023/08/04 10:18:55;;;;;;;0.98;0.90;;;21.60;68.20;;;;;;4897456;29;20053;-82
2023/08/04 10:21:27;;;;;;;1.00;1.00;;;21.70;68.20;;;;;;4913895;29;20041;-78
2023/08/04 10:23:53;;;;;;;1.10;1.00;;;21.80;68.10;;;;;;4913796;29;20475;-81
2023/08/04 10:26:19;;;;;;;1.30;1.00;;;21.80;68.00;;;;;;4899271;29;20041;-81
2023/08/04 10:29:10;;;;;;;1.17;0.90;;;21.90;67.90;;;;;;4897503;29;20028;-79
2023/08/04 10:31:57;;;;;;;1.67;1.20;;;21.90;67.80;;;;;;4881940;29;20041;-78
2023/08/04 10:34:25;;;;;;;1.10;1.00;;;22.00;67.80;;;;;;4896739;29;20497;-79
2023/08/04 10:36:57;;;;;;;1.05;0.95;;;22.10;67.70;;;;;;4897397;29;20032;-78
2023/08/04 10:39:30;;;;;;;1.17;0.93;;;22.10;67.70;;;;;;4898353;29;20478;-80
2023/08/04 10:41:56;;;;;;;1.33;1.00;;;22.20;67.70;;;;;;4898613;29;20043;-80
2023/08/04 10:44:30;;;;;;;0.90;0.90;;;22.20;67.50;;;;;;4881783;29;20036;-78
2023/08/04 10:47:00;;;;;;;0.70;0.70;;;22.30;67.60;;;;;;4897551;29;20036;-79
2023/08/04 10:49:27;;;;;;;0.93;0.88;;;22.30;67.40;;;;;;4898170;29;20075;-78
2023/08/04 10:51:54;;;;;;;0.98;0.85;;;22.40;67.40;;;;;;4881968;29;20096;-79
2023/08/04 10:54:20;;;;;;;0.90;0.90;;;22.40;67.30;;;;;;4898492;29;20123;-79
2023/08/04 10:56:46;;;;;;;1.08;0.98;;;22.50;67.20;;;;;;4898478;29;20064;-80
2023/08/04 10:59:11;;;;;;;0.93;0.93;;;22.60;67.20;;;;;;4897418;29;20049;-79
2023/08/04 11:01:37;;;;;;;1.08;1.00;;;22.60;67.00;;;;;;4898757;29;20407;-79
2023/08/04 11:04:04;;;;;;;0.93;0.80;;;22.70;67.00;;;;;;4884240;29;20033;-79
2023/08/04 11:06:30;;;;;;;1.48;1.00;;;22.70;67.00;;;;;;4884594;29;20140;-78
2023/08/04 11:08:56;;;;;;;0.93;0.90;;;22.70;67.00;;;;;;4897435;29;20120;-79
2023/08/04 11:11:23;;;;;;;1.33;1.00;;;22.80;66.90;;;;;;4881526;29;20177;-79
2023/08/04 11:13:48;;;;;;;0.90;0.90;;;22.80;66.90;;;;;;4897148;29;20060;-79
2023/08/04 11:16:17;;;;;;;0.80;0.80;;;22.80;66.80;;;;;;4897121;29;20074;-80
2023/08/04 11:18:43;;;;;;;1.60;0.98;;;22.90;66.90;;;;;;4898883;29;20044;-79
2023/08/04 11:21:09;;;;;;;1.02;0.90;;;22.90;66.80;;;;;;4897032;29;20040;-80
2023/08/04 11:23:35;;;;;;;0.82;0.82;;;22.90;66.80;;;;;;4881527;29;20096;-80
2023/08/04 11:26:01;;;;;;;0.80;0.80;;;22.90;66.80;;;;;;4896965;29;20041;-80
2023/08/04 11:28:29;;;;;;;0.77;0.77;;;23.00;66.80;;;;;;4896997;29;20043;-79
2023/08/04 11:31:05;;;;;;;0.90;0.90;;;23.00;66.80;;;;;;4896943;29;20040;-79
2023/08/04 11:33:31;;;;;;;1.48;1.08;;;23.00;66.80;;;;;;4897754;29;20115;-79
2023/08/04 11:35:59;;;;;;;1.52;1.00;;;23.10;66.80;;;;;;4897025;29;20025;-79
2023/08/04 11:38:25;;;;;;;0.98;0.98;;;23.10;66.80;;;;;;4897181;29;20035;-79
2023/08/04 11:41:11;;;;;;;0.93;0.93;;;23.10;66.70;;;;;;4896956;29;20389;-79
2023/08/04 11:43:37;;;;;;;0.80;0.80;;;23.10;66.80;;;;;;4896900;29;20065;-79
2023/08/04 11:46:04;;;;;;;1.00;0.80;;;23.10;66.70;;;;;;4901493;29;20438;-80
2023/08/04 11:48:29;;;;;;;0.90;0.90;;;23.20;66.70;;;;;;4901340;29;20041;-80
2023/08/04 11:50:56;;;;;;;1.10;0.90;;;23.20;66.70;;;;;;4900064;29;20132;-79
2023/08/04 11:53:22;;;;;;;0.73;0.73;;;23.20;66.70;;;;;;4884973;29;20041;-79
2023/08/04 11:56:00;;;;;;;1.10;1.00;;;23.30;66.70;;;;;;4900092;29;20115;-79
2023/08/04 11:58:31;;;;;;;0.88;0.85;;;23.30;66.80;;;;;;4900527;29;20028;-79
2023/08/04 12:00:57;;;;;;;1.10;1.00;;;23.30;66.70;;;;;;4900163;29;20128;-78
2023/08/04 12:03:22;;;;;;;0.80;0.80;;;23.30;66.60;;;;;;4899986;29;20050;-80
2023/08/04 12:05:49;;;;;;;0.80;0.80;;;23.40;66.60;;;;;;4899763;29;20493;-79
2023/08/04 12:08:16;;;;;;;0.90;0.85;;;23.40;66.60;;;;;;4899639;29;20047;-79
2023/08/04 12:10:43;;;;;;;0.80;0.80;;;23.40;66.50;;;;;;4916047;29;20120;-80
2023/08/04 12:13:28;;;;;;;1.02;0.80;;;23.40;66.50;;;;;;4899690;29;20029;-79
2023/08/04 12:15:54;;;;;;;0.88;0.88;;;23.50;66.50;;;;;;4886457;29;20131;-79
2023/08/04 12:18:25;;;;;;;1.00;0.80;;;23.50;66.50;;;;;;4899589;29;20149;-79
2023/08/04 12:20:50;;;;;;;0.80;0.80;;;23.50;66.40;;;;;;4899749;29;20084;-79
2023/08/04 12:23:16;;;;;;;1.20;1.10;;;23.50;66.40;;;;;;4899809;29;20040;-80
2023/08/04 12:25:42;;;;;;;0.98;0.88;;;23.50;66.30;;;;;;4883946;29;20048;-81
2023/08/04 12:28:07;;;;;;;1.27;0.88;;;23.60;66.40;;;;;;4868661;29;20377;-80
2023/08/04 12:30:33;;;;;;;1.13;1.00;;;23.60;66.40;;;;;;4899850;29;20047;-80
2023/08/04 12:32:59;;;;;;;1.10;1.00;;;23.60;66.40;;;;;;4899621;29;20063;-80
2023/08/04 12:35:24;;;;;;;1.17;0.93;;;23.60;66.40;;;;;;4884204;29;20059;-80
2023/08/04 12:37:50;;;;;;;1.27;1.10;;;23.60;66.40;;;;;;4899544;29;20116;-81
2023/08/04 12:40:16;;;;;;;1.10;0.98;;;23.50;66.30;;;;;;4898965;29;20176;-80
2023/08/04 12:42:42;;;;;;;1.20;0.90;;;23.60;66.40;;;;;;4915432;29;20044;-81
2023/08/04 12:45:08;;;;;;;1.10;1.00;;;23.60;66.30;;;;;;4899306;29;20039;-81
2023/08/04 12:47:33;;;;;;;0.88;0.88;;;23.50;66.30;;;;;;4883674;29;20131;-81